sensor_id;sensor_type;location;lat;lon;timestamp;temperature;humidity
24041;DHT22;12246;47.612;18.906;2022-08-19T00:00:18;24.50;99.90
24041;DHT22;12246;47.612;18.906;2022-08-19T00:03:10;24.40;99.90
24041;DHT22;12246;47.612;18.906;2022-08-19T00:06:03;24.40;99.90
24041;DHT22;12246;47.612;18.906;2022-08-19T00:08:57;24.30;99.90
24041;DHT22;12246;47.612;18.906;2022-08-19T00:11:51;24.30;99.90
24041;DHT22;12246;47.612;18.906;2022-08-19T00:14:43;24.20;99.90
24041;DHT22;12246;47.612;18.906;2022-08-19T00:17:35;24.30;99.90
24041;DHT22;12246;47.612;18.906;2022-08-19T00:20:32;24.10;99.90
24041;DHT22;12246;47.612;18.906;2022-08-19T00:23:25;23.90;99.90
24041;DHT22;12246;47.612;18.906;2022-08-19T00:26:18;23.90;99.90
24041;DHT22;12246;47.612;18.906;2022-08-19T00:29:13;23.80;99.90
24041;DHT22;12246;47.612;18.906;2022-08-19T00:32:06;23.90;99.90
24041;DHT22;12246;47.612;18.906;2022-08-19T00:35:01;23.90;99.90
24041;DHT22;12246;47.612;18.906;2022-08-19T00:37:54;24.00;99.90
24041;DHT22;12246;47.612;18.906;2022-08-19T00:40:46;23.80;99.90
24041;DHT22;12246;47.612;18.906;2022-08-19T00:43:39;23.80;99.90
24041;DHT22;12246;47.612;18.906;2022-08-19T00:46:34;23.70;99.90
24041;DHT22;12246;47.612;18.906;2022-08-19T00:49:35;23.70;99.90
24041;DHT22;12246;47.612;18.906;2022-08-19T00:52:34;23.90;99.90
24041;DHT22;12246;47.612;18.906;2022-08-19T00:55:28;24.00;99.90
24041;DHT22;12246;47.612;18.906;2022-08-19T00:58:24;24.00;99.90
24041;DHT22;12246;47.612;18.906;2022-08-19T01:01:16;24.00;99.90
24041;DHT22;12246;47.612;18.906;2022-08-19T01:04:09;23.90;99.90
24041;DHT22;12246;47.612;18.906;2022-08-19T01:07:01;23.70;99.90
24041;DHT22;12246;47.612;18.906;2022-08-19T01:09:54;23.50;99.90
24041;DHT22;12246;47.612;18.906;2022-08-19T01:12:47;23.30;99.90
24041;DHT22;12246;47.612;18.906;2022-08-19T01:15:45;23.20;99.90
24041;DHT22;12246;47.612;18.906;2022-08-19T01:18:41;23.10;99.90
24041;DHT22;12246;47.612;18.906;2022-08-19T01:21:44;23.10;99.90
24041;DHT22;12246;47.612;18.906;2022-08-19T01:24:38;23.10;99.90
24041;DHT22;12246;47.612;18.906;2022-08-19T01:27:43;23.20;99.90
24041;DHT22;12246;47.612;18.906;2022-08-19T01:30:36;23.20;99.90
24041;DHT22;12246;47.612;18.906;2022-08-19T01:33:28;23.40;99.90
24041;DHT22;12246;47.612;18.906;2022-08-19T01:36:32;23.50;99.90
24041;DHT22;12246;47.612;18.906;2022-08-19T01:39:26;23.40;99.90
24041;DHT22;12246;47.612;18.906;2022-08-19T01:42:18;23.30;99.90
24041;DHT22;12246;47.612;18.906;2022-08-19T01:45:23;23.10;99.90
24041;DHT22;12246;47.612;18.906;2022-08-19T01:48:17;22.90;99.90
24041;DHT22;12246;47.612;18.906;2022-08-19T01:51:10;22.80;99.90
24041;DHT22;12246;47.612;18.906;2022-08-19T01:54:02;22.90;99.90
24041;DHT22;12246;47.612;18.906;2022-08-19T01:57:02;23.00;99.90
24041;DHT22;12246;47.612;18.906;2022-08-19T01:59:55;23.20;99.90
24041;DHT22;12246;47.612;18.906;2022-08-19T02:02:48;23.20;99.90
24041;DHT22;12246;47.612;18.906;2022-08-19T02:05:41;23.30;99.90
24041;DHT22;12246;47.612;18.906;2022-08-19T02:08:36;23.20;99.90
24041;DHT22;12246;47.612;18.906;2022-08-19T02:11:31;23.10;99.90
24041;DHT22;12246;47.612;18.906;2022-08-19T02:14:25;23.00;99.90
24041;DHT22;12246;47.612;18.906;2022-08-19T02:17:17;23.00;99.90
24041;DHT22;12246;47.612;18.906;2022-08-19T02:20:11;23.10;99.90
24041;DHT22;12246;47.612;18.906;2022-08-19T02:23:05;23.10;99.90
24041;DHT22;12246;47.612;18.906;2022-08-19T02:26:06;23.10;99.90
24041;DHT22;12246;47.612;18.906;2022-08-19T02:28:59;22.90;99.90
24041;DHT22;12246;47.612;18.906;2022-08-19T02:31:52;22.60;99.90
24041;DHT22;12246;47.612;18.906;2022-08-19T02:34:44;22.40;99.90
24041;DHT22;12246;47.612;18.906;2022-08-19T02:37:36;22.50;99.90
24041;DHT22;12246;47.612;18.906;2022-08-19T02:40:50;22.50;99.90
24041;DHT22;12246;47.612;18.906;2022-08-19T02:43:43;22.60;99.90
24041;DHT22;12246;47.612;18.906;2022-08-19T02:46:56;22.40;99.90
24041;DHT22;12246;47.612;18.906;2022-08-19T02:49:48;22.40;99.90
24041;DHT22;12246;47.612;18.906;2022-08-19T02:52:41;22.30;99.90
24041;DHT22;12246;47.612;18.906;2022-08-19T02:55:34;22.40;99.90
24041;DHT22;12246;47.612;18.906;2022-08-19T02:58:37;22.50;99.90
24041;DHT22;12246;47.612;18.906;2022-08-19T03:01:32;22.40;99.90
24041;DHT22;12246;47.612;18.906;2022-08-19T03:04:24;22.40;99.90
24041;DHT22;12246;47.612;18.906;2022-08-19T03:07:17;22.40;99.90
24041;DHT22;12246;47.612;18.906;2022-08-19T03:10:10;22.30;99.90
24041;DHT22;12246;47.612;18.906;2022-08-19T03:13:03;22.20;99.90
24041;DHT22;12246;47.612;18.906;2022-08-19T03:15:55;22.40;99.90
24041;DHT22;12246;47.612;18.906;2022-08-19T03:18:48;22.30;99.90
24041;DHT22;12246;47.612;18.906;2022-08-19T03:21:42;22.30;99.90
24041;DHT22;12246;47.612;18.906;2022-08-19T03:24:37;22.30;99.90
24041;DHT22;12246;47.612;18.906;2022-08-19T03:27:30;22.40;99.90
24041;DHT22;12246;47.612;18.906;2022-08-19T03:30:25;22.40;99.90
24041;DHT22;12246;47.612;18.906;2022-08-19T03:33:17;22.30;99.90
24041;DHT22;12246;47.612;18.906;2022-08-19T03:36:22;22.30;99.90
24041;DHT22;12246;47.612;18.906;2022-08-19T03:39:18;22.40;99.90
24041;DHT22;12246;47.612;18.906;2022-08-19T03:42:10;22.30;99.90
24041;DHT22;12246;47.612;18.906;2022-08-19T03:45:23;22.20;99.90
24041;DHT22;12246;47.612;18.906;2022-08-19T03:48:15;22.30;99.90
24041;DHT22;12246;47.612;18.906;2022-08-19T03:51:17;22.50;99.90
24041;DHT22;12246;47.612;18.906;2022-08-19T03:54:22;22.60;99.90
24041;DHT22;12246;47.612;18.906;2022-08-19T03:57:15;22.60;99.90
24041;DHT22;12246;47.612;18.906;2022-08-19T04:00:08;22.40;99.90
24041;DHT22;12246;47.612;18.906;2022-08-19T04:03:04;22.30;99.90
24041;DHT22;12246;47.612;18.906;2022-08-19T04:05:56;22.20;99.90
24041;DHT22;12246;47.612;18.906;2022-08-19T04:08:51;22.00;99.90
24041;DHT22;12246;47.612;18.906;2022-08-19T04:11:46;21.90;99.90
24041;DHT22;12246;47.612;18.906;2022-08-19T04:14:39;22.10;99.90
24041;DHT22;12246;47.612;18.906;2022-08-19T04:17:31;22.10;99.90
24041;DHT22;12246;47.612;18.906;2022-08-19T04:20:24;22.00;99.90
24041;DHT22;12246;47.612;18.906;2022-08-19T04:23:16;22.10;99.90
24041;DHT22;12246;47.612;18.906;2022-08-19T04:26:17;22.40;99.90
24041;DHT22;12246;47.612;18.906;2022-08-19T04:29:17;22.40;99.90
24041;DHT22;12246;47.612;18.906;2022-08-19T04:32:09;22.30;99.90
24041;DHT22;12246;47.612;18.906;2022-08-19T04:35:02;22.40;99.90
24041;DHT22;12246;47.612;18.906;2022-08-19T04:38:11;22.40;99.90
24041;DHT22;12246;47.612;18.906;2022-08-19T04:41:03;22.50;99.90
24041;DHT22;12246;47.612;18.906;2022-08-19T04:44:14;22.70;99.90
24041;DHT22;12246;47.612;18.906;2022-08-19T04:47:09;22.70;99.90
24041;DHT22;12246;47.612;18.906;2022-08-19T04:50:03;22.70;99.90
24041;DHT22;12246;47.612;18.906;2022-08-19T04:52:55;22.80;99.90
24041;DHT22;12246;47.612;18.906;2022-08-19T04:55:48;23.10;99.90
24041;DHT22;12246;47.612;18.906;2022-08-19T04:58:43;23.20;99.90
24041;DHT22;12246;47.612;18.906;2022-08-19T05:01:36;23.50;99.90
24041;DHT22;12246;47.612;18.906;2022-08-19T05:04:28;23.60;99.90
24041;DHT22;12246;47.612;18.906;2022-08-19T05:07:23;23.80;99.90
24041;DHT22;12246;47.612;18.906;2022-08-19T05:10:15;24.00;99.90
24041;DHT22;12246;47.612;18.906;2022-08-19T05:13:07;24.10;99.90
24041;DHT22;12246;47.612;18.906;2022-08-19T05:16:01;24.10;99.90
24041;DHT22;12246;47.612;18.906;2022-08-19T05:18:54;24.30;99.90
24041;DHT22;12246;47.612;18.906;2022-08-19T05:22:05;24.50;99.90
24041;DHT22;12246;47.612;18.906;2022-08-19T05:25:18;24.60;99.90
24041;DHT22;12246;47.612;18.906;2022-08-19T05:28:11;24.90;99.90
24041;DHT22;12246;47.612;18.906;2022-08-19T05:31:04;25.10;99.90
24041;DHT22;12246;47.612;18.906;2022-08-19T05:33:56;25.40;99.90
24041;DHT22;12246;47.612;18.906;2022-08-19T05:36:54;25.60;99.90
24041;DHT22;12246;47.612;18.906;2022-08-19T05:39:48;25.60;99.90
24041;DHT22;12246;47.612;18.906;2022-08-19T05:42:42;25.80;99.90
24041;DHT22;12246;47.612;18.906;2022-08-19T05:45:39;26.00;99.90
24041;DHT22;12246;47.612;18.906;2022-08-19T05:48:35;26.30;99.90
24041;DHT22;12246;47.612;18.906;2022-08-19T05:51:27;26.30;99.90
24041;DHT22;12246;47.612;18.906;2022-08-19T05:54:20;26.40;99.90
24041;DHT22;12246;47.612;18.906;2022-08-19T05:57:14;26.50;99.90
24041;DHT22;12246;47.612;18.906;2022-08-19T06:00:08;26.40;99.90
24041;DHT22;12246;47.612;18.906;2022-08-19T06:03:02;26.30;99.90
24041;DHT22;12246;47.612;18.906;2022-08-19T06:06:05;26.30;99.90
24041;DHT22;12246;47.612;18.906;2022-08-19T06:08:57;26.20;99.90
24041;DHT22;12246;47.612;18.906;2022-08-19T06:11:53;26.30;99.90
24041;DHT22;12246;47.612;18.906;2022-08-19T06:14:47;26.50;99.90
24041;DHT22;12246;47.612;18.906;2022-08-19T06:17:51;26.60;99.90
24041;DHT22;12246;47.612;18.906;2022-08-19T06:20:43;26.70;99.90
24041;DHT22;12246;47.612;18.906;2022-08-19T06:23:51;26.80;99.90
24041;DHT22;12246;47.612;18.906;2022-08-19T06:26:46;26.60;99.90
24041;DHT22;12246;47.612;18.906;2022-08-19T06:29:39;26.80;99.90
24041;DHT22;12246;47.612;18.906;2022-08-19T06:32:31;26.80;99.90
24041;DHT22;12246;47.612;18.906;2022-08-19T06:35:23;26.80;99.90
24041;DHT22;12246;47.612;18.906;2022-08-19T06:38:17;27.00;99.90
24041;DHT22;12246;47.612;18.906;2022-08-19T06:41:09;27.20;99.90
24041;DHT22;12246;47.612;18.906;2022-08-19T06:44:02;27.50;99.90
24041;DHT22;12246;47.612;18.906;2022-08-19T06:46:55;27.40;99.90
24041;DHT22;12246;47.612;18.906;2022-08-19T06:49:48;27.60;99.90
24041;DHT22;12246;47.612;18.906;2022-08-19T06:52:40;27.80;99.90
24041;DHT22;12246;47.612;18.906;2022-08-19T06:55:32;28.20;99.90
24041;DHT22;12246;47.612;18.906;2022-08-19T06:58:24;28.20;99.90
24041;DHT22;12246;47.612;18.906;2022-08-19T07:01:17;28.10;99.90
24041;DHT22;12246;47.612;18.906;2022-08-19T07:04:09;28.20;99.90
24041;DHT22;12246;47.612;18.906;2022-08-19T07:07:09;28.40;99.90
24041;DHT22;12246;47.612;18.906;2022-08-19T07:10:12;28.30;99.90
24041;DHT22;12246;47.612;18.906;2022-08-19T07:13:04;28.60;99.90
24041;DHT22;12246;47.612;18.906;2022-08-19T07:15:57;28.70;99.20
24041;DHT22;12246;47.612;18.906;2022-08-19T07:18:57;28.60;99.50
24041;DHT22;12246;47.612;18.906;2022-08-19T07:21:51;28.60;99.00
24041;DHT22;12246;47.612;18.906;2022-08-19T07:24:47;28.50;99.40
24041;DHT22;12246;47.612;18.906;2022-08-19T07:27:42;28.60;99.10
24041;DHT22;12246;47.612;18.906;2022-08-19T07:30:39;28.50;99.20
24041;DHT22;12246;47.612;18.906;2022-08-19T07:33:34;28.60;99.50
24041;DHT22;12246;47.612;18.906;2022-08-19T07:36:28;28.80;98.80
24041;DHT22;12246;47.612;18.906;2022-08-19T07:39:29;28.90;98.70
24041;DHT22;12246;47.612;18.906;2022-08-19T07:42:22;29.00;98.80
24041;DHT22;12246;47.612;18.906;2022-08-19T07:45:14;29.00;97.90
24041;DHT22;12246;47.612;18.906;2022-08-19T07:48:07;29.20;98.30
24041;DHT22;12246;47.612;18.906;2022-08-19T07:51:04;29.20;98.70
24041;DHT22;12246;47.612;18.906;2022-08-19T07:53:57;29.40;98.10
24041;DHT22;12246;47.612;18.906;2022-08-19T07:56:49;29.60;97.50
24041;DHT22;12246;47.612;18.906;2022-08-19T07:59:44;29.80;96.60
24041;DHT22;12246;47.612;18.906;2022-08-19T08:02:37;29.90;96.60
24041;DHT22;12246;47.612;18.906;2022-08-19T08:05:31;29.80;96.50
24041;DHT22;12246;47.612;18.906;2022-08-19T08:08:42;30.00;96.10
24041;DHT22;12246;47.612;18.906;2022-08-19T08:12:01;30.10;95.40
24041;DHT22;12246;47.612;18.906;2022-08-19T08:15:15;30.10;96.00
24041;DHT22;12246;47.612;18.906;2022-08-19T08:18:16;30.20;95.00
24041;DHT22;12246;47.612;18.906;2022-08-19T08:21:08;30.10;95.00
24041;DHT22;12246;47.612;18.906;2022-08-19T08:24:00;30.30;94.50
24041;DHT22;12246;47.612;18.906;2022-08-19T08:26:53;30.40;94.10
24041;DHT22;12246;47.612;18.906;2022-08-19T08:29:48;30.20;94.10
24041;DHT22;12246;47.612;18.906;2022-08-19T08:32:41;30.10;93.60
24041;DHT22;12246;47.612;18.906;2022-08-19T08:35:36;30.40;94.20
24041;DHT22;12246;47.612;18.906;2022-08-19T08:38:28;30.50;93.10
24041;DHT22;12246;47.612;18.906;2022-08-19T08:45:14;30.60;93.10
24041;DHT22;12246;47.612;18.906;2022-08-19T08:48:35;30.60;92.60
24041;DHT22;12246;47.612;18.906;2022-08-19T08:54:40;30.80;92.40
24041;DHT22;12246;47.612;18.906;2022-08-19T09:00:45;31.40;90.00
24041;DHT22;12246;47.612;18.906;2022-08-19T09:03:40;31.50;88.20
24041;DHT22;12246;47.612;18.906;2022-08-19T09:09:46;31.60;88.40
24041;DHT22;12246;47.612;18.906;2022-08-19T09:12:53;31.60;87.50
24041;DHT22;12246;47.612;18.906;2022-08-19T09:16:02;31.90;85.70
24041;DHT22;12246;47.612;18.906;2022-08-19T09:19:01;31.90;83.70
24041;DHT22;12246;47.612;18.906;2022-08-19T09:21:57;32.00;84.80
24041;DHT22;12246;47.612;18.906;2022-08-19T09:24:52;32.10;84.90
24041;DHT22;12246;47.612;18.906;2022-08-19T09:27:45;32.40;84.30
24041;DHT22;12246;47.612;18.906;2022-08-19T09:30:40;32.30;81.60
24041;DHT22;12246;47.612;18.906;2022-08-19T09:33:33;31.90;81.40
24041;DHT22;12246;47.612;18.906;2022-08-19T09:36:27;31.90;82.80
24041;DHT22;12246;47.612;18.906;2022-08-19T09:39:25;32.00;82.10
24041;DHT22;12246;47.612;18.906;2022-08-19T09:42:27;32.30;83.10
24041;DHT22;12246;47.612;18.906;2022-08-19T09:45:26;32.50;81.00
24041;DHT22;12246;47.612;18.906;2022-08-19T09:48:18;32.60;78.70
24041;DHT22;12246;47.612;18.906;2022-08-19T09:51:18;32.70;78.40
24041;DHT22;12246;47.612;18.906;2022-08-19T09:54:12;32.70;78.10
24041;DHT22;12246;47.612;18.906;2022-08-19T09:57:05;32.80;77.70
24041;DHT22;12246;47.612;18.906;2022-08-19T09:59:58;32.90;79.20
24041;DHT22;12246;47.612;18.906;2022-08-19T10:02:51;33.10;78.90
24041;DHT22;12246;47.612;18.906;2022-08-19T10:05:44;33.20;76.40
24041;DHT22;12246;47.612;18.906;2022-08-19T10:08:46;33.10;75.60
24041;DHT22;12246;47.612;18.906;2022-08-19T10:11:43;33.20;75.40
24041;DHT22;12246;47.612;18.906;2022-08-19T10:14:46;33.10;74.70
24041;DHT22;12246;47.612;18.906;2022-08-19T10:17:38;32.90;74.00
24041;DHT22;12246;47.612;18.906;2022-08-19T10:20:38;32.90;74.50
24041;DHT22;12246;47.612;18.906;2022-08-19T10:23:31;33.10;73.40
24041;DHT22;12246;47.612;18.906;2022-08-19T10:26:29;33.00;73.40
24041;DHT22;12246;47.612;18.906;2022-08-19T10:29:21;32.90;73.60
24041;DHT22;12246;47.612;18.906;2022-08-19T10:32:24;32.90;72.60
24041;DHT22;12246;47.612;18.906;2022-08-19T10:35:25;33.20;73.90
24041;DHT22;12246;47.612;18.906;2022-08-19T10:38:19;33.10;71.50
24041;DHT22;12246;47.612;18.906;2022-08-19T10:41:26;33.20;72.70
24041;DHT22;12246;47.612;18.906;2022-08-19T10:44:18;33.50;72.70
24041;DHT22;12246;47.612;18.906;2022-08-19T10:47:11;33.60;70.00
24041;DHT22;12246;47.612;18.906;2022-08-19T10:50:16;33.60;70.80
24041;DHT22;12246;47.612;18.906;2022-08-19T10:53:29;33.60;70.00
24041;DHT22;12246;47.612;18.906;2022-08-19T10:56:21;33.60;70.20
24041;DHT22;12246;47.612;18.906;2022-08-19T10:59:32;33.70;69.50
24041;DHT22;12246;47.612;18.906;2022-08-19T11:02:27;33.80;69.80
24041;DHT22;12246;47.612;18.906;2022-08-19T11:05:20;34.10;68.60
24041;DHT22;12246;47.612;18.906;2022-08-19T11:08:15;33.90;68.60
24041;DHT22;12246;47.612;18.906;2022-08-19T11:11:14;33.90;68.70
24041;DHT22;12246;47.612;18.906;2022-08-19T11:14:09;33.80;68.80
24041;DHT22;12246;47.612;18.906;2022-08-19T11:17:03;33.90;68.40
24041;DHT22;12246;47.612;18.906;2022-08-19T11:19:56;34.10;68.50
24041;DHT22;12246;47.612;18.906;2022-08-19T11:22:48;34.10;67.70
24041;DHT22;12246;47.612;18.906;2022-08-19T11:25:40;34.10;67.30
24041;DHT22;12246;47.612;18.906;2022-08-19T11:28:33;34.40;67.60
24041;DHT22;12246;47.612;18.906;2022-08-19T11:31:28;34.50;67.40
24041;DHT22;12246;47.612;18.906;2022-08-19T11:34:24;34.60;66.10
24041;DHT22;12246;47.612;18.906;2022-08-19T11:37:19;34.40;66.60
24041;DHT22;12246;47.612;18.906;2022-08-19T11:40:11;34.70;65.50
24041;DHT22;12246;47.612;18.906;2022-08-19T11:43:04;34.50;65.60
24041;DHT22;12246;47.612;18.906;2022-08-19T11:45:57;34.50;66.00
24041;DHT22;12246;47.612;18.906;2022-08-19T11:48:49;34.80;65.10
24041;DHT22;12246;47.612;18.906;2022-08-19T11:51:42;35.00;63.90
24041;DHT22;12246;47.612;18.906;2022-08-19T11:54:35;35.20;63.60
24041;DHT22;12246;47.612;18.906;2022-08-19T11:57:27;34.80;64.80
24041;DHT22;12246;47.612;18.906;2022-08-19T12:00:19;34.80;62.50
24041;DHT22;12246;47.612;18.906;2022-08-19T12:03:13;34.50;62.80
24041;DHT22;12246;47.612;18.906;2022-08-19T12:06:07;34.30;63.60
24041;DHT22;12246;47.612;18.906;2022-08-19T12:09:05;34.30;62.90
24041;DHT22;12246;47.612;18.906;2022-08-19T12:11:59;34.40;63.00
24041;DHT22;12246;47.612;18.906;2022-08-19T12:14:51;34.40;62.60
24041;DHT22;12246;47.612;18.906;2022-08-19T12:17:48;34.30;63.00
24041;DHT22;12246;47.612;18.906;2022-08-19T12:20:42;34.40;62.90
24041;DHT22;12246;47.612;18.906;2022-08-19T12:23:34;34.70;62.00
24041;DHT22;12246;47.612;18.906;2022-08-19T12:26:29;34.90;62.70
24041;DHT22;12246;47.612;18.906;2022-08-19T12:29:23;34.90;61.50
24041;DHT22;12246;47.612;18.906;2022-08-19T12:32:16;34.70;61.80
24041;DHT22;12246;47.612;18.906;2022-08-19T12:35:09;34.70;63.50
24041;DHT22;12246;47.612;18.906;2022-08-19T12:38:03;34.70;61.60
24041;DHT22;12246;47.612;18.906;2022-08-19T12:40:55;34.80;62.70
24041;DHT22;12246;47.612;18.906;2022-08-19T12:43:51;34.90;60.70
24041;DHT22;12246;47.612;18.906;2022-08-19T12:46:43;34.90;60.80
24041;DHT22;12246;47.612;18.906;2022-08-19T12:49:37;34.80;59.70
24041;DHT22;12246;47.612;18.906;2022-08-19T12:52:46;35.00;59.80
24041;DHT22;12246;47.612;18.906;2022-08-19T12:55:39;35.10;59.00
24041;DHT22;12246;47.612;18.906;2022-08-19T12:58:31;35.10;59.30
24041;DHT22;12246;47.612;18.906;2022-08-19T13:01:26;35.10;58.80
24041;DHT22;12246;47.612;18.906;2022-08-19T13:04:19;35.00;58.70
24041;DHT22;12246;47.612;18.906;2022-08-19T13:07:12;35.10;59.80
24041;DHT22;12246;47.612;18.906;2022-08-19T13:10:06;35.20;59.40
24041;DHT22;12246;47.612;18.906;2022-08-19T13:13:00;35.40;59.00
24041;DHT22;12246;47.612;18.906;2022-08-19T13:16:00;35.60;58.40
24041;DHT22;12246;47.612;18.906;2022-08-19T13:18:56;35.50;58.60
24041;DHT22;12246;47.612;18.906;2022-08-19T13:21:50;35.40;58.70
24041;DHT22;12246;47.612;18.906;2022-08-19T13:24:51;35.30;58.60
24041;DHT22;12246;47.612;18.906;2022-08-19T13:27:43;35.30;57.70
24041;DHT22;12246;47.612;18.906;2022-08-19T13:30:35;35.20;58.20
24041;DHT22;12246;47.612;18.906;2022-08-19T13:33:46;35.20;57.80
24041;DHT22;12246;47.612;18.906;2022-08-19T13:36:38;35.20;58.10
24041;DHT22;12246;47.612;18.906;2022-08-19T13:39:32;35.20;58.20
24041;DHT22;12246;47.612;18.906;2022-08-19T13:42:24;35.10;59.10
24041;DHT22;12246;47.612;18.906;2022-08-19T13:45:22;34.90;60.00
24041;DHT22;12246;47.612;18.906;2022-08-19T13:48:14;34.90;59.30
24041;DHT22;12246;47.612;18.906;2022-08-19T13:51:08;34.20;66.30
24041;DHT22;12246;47.612;18.906;2022-08-19T13:54:03;32.90;70.70
24041;DHT22;12246;47.612;18.906;2022-08-19T13:56:56;32.30;73.30
24041;DHT22;12246;47.612;18.906;2022-08-19T13:59:48;31.90;75.00
24041;DHT22;12246;47.612;18.906;2022-08-19T14:02:41;31.70;76.60
24041;DHT22;12246;47.612;18.906;2022-08-19T14:05:35;31.50;78.20
24041;DHT22;12246;47.612;18.906;2022-08-19T14:08:27;31.40;79.60
24041;DHT22;12246;47.612;18.906;2022-08-19T14:11:20;31.40;80.40
24041;DHT22;12246;47.612;18.906;2022-08-19T14:14:12;31.40;79.20
24041;DHT22;12246;47.612;18.906;2022-08-19T14:17:08;31.20;80.40
24041;DHT22;12246;47.612;18.906;2022-08-19T14:20:06;31.00;80.00
24041;DHT22;12246;47.612;18.906;2022-08-19T14:23:02;30.90;80.60
24041;DHT22;12246;47.612;18.906;2022-08-19T14:26:04;30.80;80.60
24041;DHT22;12246;47.612;18.906;2022-08-19T14:28:56;30.70;80.50
24041;DHT22;12246;47.612;18.906;2022-08-19T14:31:49;30.70;80.90
24041;DHT22;12246;47.612;18.906;2022-08-19T14:34:41;30.70;81.50
24041;DHT22;12246;47.612;18.906;2022-08-19T14:37:34;30.80;81.00
24041;DHT22;12246;47.612;18.906;2022-08-19T14:40:36;30.90;80.60
24041;DHT22;12246;47.612;18.906;2022-08-19T14:43:29;30.70;80.80
24041;DHT22;12246;47.612;18.906;2022-08-19T14:46:24;30.70;80.60
24041;DHT22;12246;47.612;18.906;2022-08-19T14:49:20;30.60;81.40
24041;DHT22;12246;47.612;18.906;2022-08-19T14:52:26;30.50;82.00
24041;DHT22;12246;47.612;18.906;2022-08-19T14:55:18;30.50;80.80
24041;DHT22;12246;47.612;18.906;2022-08-19T14:58:11;30.40;80.20
24041;DHT22;12246;47.612;18.906;2022-08-19T15:01:22;30.40;80.70
24041;DHT22;12246;47.612;18.906;2022-08-19T15:04:14;30.40;80.10
24041;DHT22;12246;47.612;18.906;2022-08-19T15:07:07;30.30;80.10
24041;DHT22;12246;47.612;18.906;2022-08-19T15:09:59;30.30;77.90
24041;DHT22;12246;47.612;18.906;2022-08-19T15:12:51;30.30;78.20
24041;DHT22;12246;47.612;18.906;2022-08-19T15:15:45;30.20;79.10
24041;DHT22;12246;47.612;18.906;2022-08-19T15:18:39;30.10;79.20
24041;DHT22;12246;47.612;18.906;2022-08-19T15:21:31;30.10;79.60
24041;DHT22;12246;47.612;18.906;2022-08-19T15:24:25;30.00;79.70
24041;DHT22;12246;47.612;18.906;2022-08-19T15:27:17;30.00;80.00
24041;DHT22;12246;47.612;18.906;2022-08-19T15:30:11;30.00;80.10
24041;DHT22;12246;47.612;18.906;2022-08-19T15:33:04;29.90;78.70
24041;DHT22;12246;47.612;18.906;2022-08-19T15:35:56;29.80;78.50
24041;DHT22;12246;47.612;18.906;2022-08-19T15:38:49;29.70;78.10
24041;DHT22;12246;47.612;18.906;2022-08-19T15:41:44;29.60;77.80
24041;DHT22;12246;47.612;18.906;2022-08-19T15:44:36;29.50;77.60
24041;DHT22;12246;47.612;18.906;2022-08-19T15:47:29;29.50;76.50
24041;DHT22;12246;47.612;18.906;2022-08-19T15:50:27;29.40;77.50
24041;DHT22;12246;47.612;18.906;2022-08-19T15:53:19;29.30;77.80
24041;DHT22;12246;47.612;18.906;2022-08-19T15:56:12;29.20;78.70
24041;DHT22;12246;47.612;18.906;2022-08-19T15:59:05;29.10;78.50
24041;DHT22;12246;47.612;18.906;2022-08-19T16:02:16;29.00;80.00
24041;DHT22;12246;47.612;18.906;2022-08-19T16:05:28;28.80;78.90
24041;DHT22;12246;47.612;18.906;2022-08-19T16:08:38;28.70;79.60
24041;DHT22;12246;47.612;18.906;2022-08-19T16:11:40;28.60;80.60
24041;DHT22;12246;47.612;18.906;2022-08-19T16:14:36;28.40;83.20
24041;DHT22;12246;47.612;18.906;2022-08-19T16:17:29;28.20;86.10
24041;DHT22;12246;47.612;18.906;2022-08-19T16:20:21;28.10;85.70
24041;DHT22;12246;47.612;18.906;2022-08-19T16:23:15;27.90;87.90
24041;DHT22;12246;47.612;18.906;2022-08-19T16:26:07;27.70;89.90
24041;DHT22;12246;47.612;18.906;2022-08-19T16:29:01;27.60;90.60
24041;DHT22;12246;47.612;18.906;2022-08-19T16:32:00;27.60;91.00
24041;DHT22;12246;47.612;18.906;2022-08-19T16:34:54;27.60;91.10
24041;DHT22;12246;47.612;18.906;2022-08-19T16:37:46;27.60;91.00
24041;DHT22;12246;47.612;18.906;2022-08-19T16:40:39;27.60;91.00
24041;DHT22;12246;47.612;18.906;2022-08-19T16:43:37;27.60;91.00
24041;DHT22;12246;47.612;18.906;2022-08-19T16:46:31;27.60;91.20
24041;DHT22;12246;47.612;18.906;2022-08-19T16:49:23;27.50;91.00
24041;DHT22;12246;47.612;18.906;2022-08-19T16:52:36;27.40;91.10
24041;DHT22;12246;47.612;18.906;2022-08-19T16:55:28;27.40;91.40
24041;DHT22;12246;47.612;18.906;2022-08-19T16:58:22;27.30;91.50
24041;DHT22;12246;47.612;18.906;2022-08-19T17:01:19;27.30;91.50
24041;DHT22;12246;47.612;18.906;2022-08-19T17:04:11;27.30;91.00
24041;DHT22;12246;47.612;18.906;2022-08-19T17:07:04;27.30;90.00
24041;DHT22;12246;47.612;18.906;2022-08-19T17:09:57;27.30;88.90
24041;DHT22;12246;47.612;18.906;2022-08-19T17:12:49;27.40;88.90
24041;DHT22;12246;47.612;18.906;2022-08-19T17:15:44;27.40;88.50
24041;DHT22;12246;47.612;18.906;2022-08-19T17:18:36;27.50;88.50
24041;DHT22;12246;47.612;18.906;2022-08-19T17:21:32;27.60;88.80
24041;DHT22;12246;47.612;18.906;2022-08-19T17:24:25;27.50;88.90
24041;DHT22;12246;47.612;18.906;2022-08-19T17:27:17;27.60;88.50
24041;DHT22;12246;47.612;18.906;2022-08-19T17:30:10;27.50;88.20
24041;DHT22;12246;47.612;18.906;2022-08-19T17:33:04;27.50;87.30
24041;DHT22;12246;47.612;18.906;2022-08-19T17:35:56;27.40;87.30
24041;DHT22;12246;47.612;18.906;2022-08-19T17:38:50;27.30;89.40
24041;DHT22;12246;47.612;18.906;2022-08-19T17:41:43;27.00;90.40
24041;DHT22;12246;47.612;18.906;2022-08-19T17:44:35;26.90;90.80
24041;DHT22;12246;47.612;18.906;2022-08-19T17:47:28;26.60;91.50
24041;DHT22;12246;47.612;18.906;2022-08-19T17:50:21;26.30;92.80
24041;DHT22;12246;47.612;18.906;2022-08-19T17:53:13;26.10;93.70
24041;DHT22;12246;47.612;18.906;2022-08-19T17:56:05;25.90;93.90
24041;DHT22;12246;47.612;18.906;2022-08-19T17:58:58;25.90;94.10
24041;DHT22;12246;47.612;18.906;2022-08-19T18:01:52;25.90;94.50
24041;DHT22;12246;47.612;18.906;2022-08-19T18:04:45;26.00;94.80
24041;DHT22;12246;47.612;18.906;2022-08-19T18:07:40;26.00;95.00
24041;DHT22;12246;47.612;18.906;2022-08-19T18:10:36;26.10;95.10
24041;DHT22;12246;47.612;18.906;2022-08-19T18:13:28;26.10;95.10
24041;DHT22;12246;47.612;18.906;2022-08-19T18:16:21;26.00;95.40
24041;DHT22;12246;47.612;18.906;2022-08-19T18:19:14;25.90;95.40
24041;DHT22;12246;47.612;18.906;2022-08-19T18:22:06;25.90;94.60